Time;durP1;ratioP1;P1;durP2;ratioP2;P2;SDS_P1;SDS_P2;PMS_P1;PMS_P2;Temp;Humidity;BMP_temperature;BMP_pressure;BME280_temperature;BME280_humidity;BME280_pressure;Samples;Min_cycle;Max_cycle;Signal;HPM_P1;HPM_P2
2021/05/31 00:01:01;;;;;;;9.77;4.93;;;9.20;99.90;;;;;;5063004;28;19921;-54
2021/05/31 00:03:26;;;;;;;;;;;9.20;99.90;;;;;;5063107;28;20036;-55
2021/05/31 00:05:52;;;;;;;8.10;4.18;;;9.10;99.90;;;;;;5063874;28;19974;-50
2021/05/31 00:08:18;;;;;;;;;;;9.10;99.90;;;;;;5064773;28;20547;-52
2021/05/31 00:10:44;;;;;;;11.77;5.13;;;9.10;99.90;;;;;;5062696;28;20296;-51
2021/05/31 00:13:09;;;;;;;;;;;9.10;99.90;;;;;;5067891;28;20047;-53
2021/05/31 00:15:35;;;;;;;5.63;4.25;;;9.10;99.90;;;;;;5075317;28;20014;-53
2021/05/31 00:18:01;;;;;;;;;;;9.10;99.90;;;;;;5075729;28;20040;-54
2021/05/31 00:20:27;;;;;;;9.32;4.82;;;9.10;99.90;;;;;;5069912;28;19924;-49
2021/05/31 00:22:52;;;;;;;9.02;4.10;;;9.00;99.90;;;;;;5070371;28;20408;-49
2021/05/31 00:25:18;;;;;;;;;;;9.00;99.90;;;;;;5071232;28;20039;-54
2021/05/31 00:27:44;;;;;;;6.65;4.05;;;9.00;99.90;;;;;;5071041;28;19925;-53
2021/05/31 00:30:10;;;;;;;;;;;9.00;99.90;;;;;;5069511;28;20133;-56
2021/05/31 00:32:37;;;;;;;6.60;4.60;;;9.00;99.90;;;;;;5064487;28;19917;-52
2021/05/31 00:35:05;;;;;;;9.05;4.65;;;9.00;99.90;;;;;;5050885;28;20033;-54
2021/05/31 00:37:30;;;;;;;8.43;4.97;;;9.00;99.90;;;;;;5050937;28;20045;-54
2021/05/31 00:39:56;;;;;;;;;;;8.90;99.90;;;;;;5051208;28;20044;-53
2021/05/31 00:42:21;;;;;;;7.93;4.65;;;8.90;99.90;;;;;;5049420;28;20003;-51
2021/05/31 00:44:46;;;;;;;;;;;8.80;99.90;;;;;;5061021;28;20044;-52
2021/05/31 00:47:12;;;;;;;8.90;4.70;;;8.80;99.90;;;;;;5061968;28;19927;-54
2021/05/31 00:49:38;;;;;;;;;;;8.80;99.90;;;;;;5070841;28;20403;-55
2021/05/31 00:52:06;;;;;;;6.97;4.50;;;8.80;99.90;;;;;;5069067;28;19923;-52
2021/05/31 00:54:32;;;;;;;10.48;4.78;;;8.80;99.90;;;;;;5070191;28;20106;-54
2021/05/31 00:56:58;;;;;;;;;;;8.80;99.90;;;;;;5066107;28;20496;-54
2021/05/31 00:59:24;;;;;;;8.55;4.53;;;8.80;99.90;;;;;;5051384;28;19917;-51
2021/05/31 01:01:49;;;;;;;;;;;8.70;99.90;;;;;;5046221;28;20124;-51
2021/05/31 01:04:16;;;;;;;6.78;4.40;;;8.70;99.90;;;;;;5047869;28;19920;-55
2021/05/31 01:06:52;;;;;;;8.85;4.68;;;8.50;99.90;;;;;;5049803;28;20677;-55
2021/05/31 01:09:30;;;;;;;7.60;5.17;;;8.60;99.90;;;;;;5050413;28;20128;-54
2021/05/31 01:12:13;;;;;;;12.00;5.05;;;8.50;99.90;;;;;;5048585;28;20045;-52
2021/05/31 01:14:57;;;;;;;9.85;4.85;;;8.50;99.90;;;;;;5057805;28;20049;-54
2021/05/31 01:17:43;;;;;;;8.85;5.15;;;8.50;99.90;;;;;;5069230;28;20048;-48
2021/05/31 01:20:41;;;;;;;12.80;4.63;;;8.40;99.90;;;;;;5068670;28;20078;-52
2021/05/31 01:23:12;;;;;;;7.40;4.80;;;8.40;99.90;;;;;;5037482;28;20548;-54
2021/05/31 01:26:00;;;;;;;8.10;4.55;;;8.40;99.90;;;;;;5045771;28;20084;-57
2021/05/31 01:28:38;;;;;;;7.95;4.65;;;8.30;99.90;;;;;;5054519;28;20036;-52
2021/05/31 01:31:04;;;;;;;9.27;4.93;;;8.30;99.90;;;;;;5047744;28;20396;-52
2021/05/31 01:33:32;;;;;;;;;;;8.30;99.90;;;;;;5061878;28;20516;-53
2021/05/31 01:35:59;;;;;;;9.65;4.65;;;8.30;99.90;;;;;;5069559;28;20346;-51
2021/05/31 01:38:26;;;;;;;9.25;4.90;;;8.30;99.90;;;;;;5065419;28;20049;-56
2021/05/31 01:40:52;;;;;;;8.32;5.07;;;8.30;99.90;;;;;;5048674;28;20092;-53
2021/05/31 01:43:19;;;;;;;10.98;5.40;;;8.30;99.90;;;;;;5050281;28;20475;-48
2021/05/31 01:45:45;;;;;;;7.55;5.00;;;8.30;99.90;;;;;;5056715;28;20045;-49
2021/05/31 01:48:12;;;;;;;7.20;5.05;;;8.30;99.90;;;;;;5049393;28;20036;-53
2021/05/31 01:50:38;;;;;;;7.43;4.40;;;8.30;99.90;;;;;;5048887;28;20064;-53
2021/05/31 01:53:04;;;;;;;10.43;4.70;;;8.30;99.90;;;;;;5047965;28;20078;-53
2021/05/31 01:55:30;;;;;;;;;;;8.20;99.90;;;;;;5049939;28;20047;-50
2021/05/31 01:57:56;;;;;;;8.68;4.70;;;8.20;99.90;;;;;;5061271;28;19920;-51
2021/05/31 02:00:21;;;;;;;;;;;8.20;99.90;;;;;;5068582;28;20074;-55
2021/05/31 02:02:47;;;;;;;8.23;4.88;;;8.20;99.90;;;;;;5068297;28;19920;-53
2021/05/31 02:05:14;;;;;;;;;;;8.10;99.90;;;;;;5069393;28;20043;-56
2021/05/31 02:07:40;;;;;;;;;;;8.20;99.90;;;;;;5069759;28;19941;-56
2021/05/31 02:10:07;;;;;;;11.60;5.28;;;8.10;99.90;;;;;;5068216;28;19920;-52
2021/05/31 02:12:41;;;;;;;12.95;5.63;;;8.10;99.90;;;;;;5065995;28;20059;-49
2021/05/31 02:15:08;;;;;;;11.75;5.15;;;8.10;99.90;;;;;;5057040;28;20042;-53
2021/05/31 02:17:54;;;;;;;9.98;5.57;;;8.00;99.90;;;;;;5032835;28;20060;-52
2021/05/31 02:20:21;;;;;;;9.70;4.97;;;8.00;99.90;;;;;;5047879;28;20071;-49
2021/05/31 02:22:49;;;;;;;10.80;5.45;;;8.00;99.90;;;;;;5048164;28;20037;-51
2021/05/31 02:25:15;;;;;;;12.43;5.18;;;7.90;99.90;;;;;;5047578;28;20049;-52
2021/05/31 02:27:46;;;;;;;11.73;5.10;;;8.00;99.90;;;;;;5039809;28;20136;-50
2021/05/31 02:30:14;;;;;;;9.00;5.45;;;8.00;99.90;;;;;;5028392;28;20160;-57
2021/05/31 02:33:03;;;;;;;8.55;4.82;;;7.90;99.90;;;;;;5048934;28;20445;-53
2021/05/31 02:35:32;;;;;;;9.27;5.40;;;7.90;99.90;;;;;;5048057;28;20565;-52
2021/05/31 02:37:58;;;;;;;8.57;5.10;;;7.90;99.90;;;;;;5048460;28;20497;-53
2021/05/31 02:40:24;;;;;;;;;;;7.90;99.90;;;;;;5048260;28;20064;-51
2021/05/31 02:42:55;;;;;;;16.75;5.07;;;7.90;99.90;;;;;;5049343;28;19963;-53
2021/05/31 02:45:23;;;;;;;7.40;4.80;;;7.90;99.90;;;;;;5059323;28;20200;-55
2021/05/31 02:47:49;;;;;;;7.47;4.65;;;7.80;99.90;;;;;;5068389;28;20496;-52
2021/05/31 02:50:15;;;;;;;9.98;5.35;;;7.80;99.90;;;;;;5066920;28;20048;-52
2021/05/31 02:52:42;;;;;;;10.57;5.50;;;7.80;99.90;;;;;;5067354;28;20044;-55
2021/05/31 02:55:19;;;;;;;6.78;5.18;;;7.80;99.90;;;;;;5059314;28;20052;-50
2021/05/31 02:57:46;;;;;;;11.95;6.25;;;7.80;99.90;;;;;;5055098;28;20067;-49
2021/05/31 03:00:14;;;;;;;9.52;5.65;;;7.80;99.90;;;;;;5046756;28;20047;-50
2021/05/31 03:02:40;;;;;;;12.82;6.60;;;7.80;99.90;;;;;;5047455;28;20040;-49
2021/05/31 03:05:08;;;;;;;9.95;5.85;;;7.90;99.90;;;;;;5048068;28;20040;-56
2021/05/31 03:07:33;;;;;;;10.02;5.55;;;7.80;99.90;;;;;;5047638;28;20080;-53
2021/05/31 03:09:59;;;;;;;;;;;7.80;99.90;;;;;;5046860;28;20076;-49
2021/05/31 03:12:24;;;;;;;6.90;5.13;;;7.80;99.90;;;;;;5047537;28;19924;-57
2021/05/31 03:14:51;;;;;;;;;;;7.80;99.90;;;;;;5057935;28;20060;-48
2021/05/31 03:17:18;;;;;;;10.82;4.90;;;7.70;99.90;;;;;;5066925;28;19923;-54
2021/05/31 03:19:43;;;;;;;11.00;4.90;;;7.70;99.90;;;;;;5065072;28;20048;-51
2021/05/31 03:22:09;;;;;;;;;;;7.70;99.90;;;;;;5067757;28;20045;-56
2021/05/31 03:24:35;;;;;;;8.70;5.22;;;7.80;99.90;;;;;;5068091;28;19931;-50
2021/05/31 03:27:00;;;;;;;;;;;7.70;99.90;;;;;;5065730;28;20080;-55
2021/05/31 03:29:26;;;;;;;8.23;5.18;;;7.80;99.90;;;;;;5047522;28;20011;-53
2021/05/31 03:31:51;;;;;;;;;;;7.70;99.90;;;;;;5046281;28;20049;-52
2021/05/31 03:34:17;;;;;;;11.90;5.80;;;7.70;99.90;;;;;;5066307;28;20008;-53
2021/05/31 03:36:42;;;;;;;;;;;7.70;99.90;;;;;;5055626;28;20045;-56
2021/05/31 03:39:08;;;;;;;8.85;5.00;;;7.70;99.90;;;;;;5068159;28;19916;-55
2021/05/31 03:41:34;;;;;;;7.63;4.72;;;7.80;99.90;;;;;;5066554;28;20036;-56
2021/05/31 03:44:00;;;;;;;;;;;8.20;99.90;;;;;;5055575;28;20056;-51
2021/05/31 03:46:26;;;;;;;8.23;4.60;;;8.50;99.90;;;;;;5052075;28;20392;-52
2021/05/31 03:48:52;;;;;;;;;;;8.60;99.90;;;;;;5048292;28;20047;-49
2021/05/31 03:51:19;;;;;;;11.65;5.13;;;8.60;99.90;;;;;;5047654;28;19916;-53
2021/05/31 03:53:44;;;;;;;10.68;5.35;;;8.50;99.90;;;;;;5050512;28;20408;-51
2021/05/31 03:56:10;;;;;;;;;;;8.60;99.90;;;;;;5051659;28;20055;-50
2021/05/31 03:58:37;;;;;;;8.23;4.65;;;8.80;99.90;;;;;;5051675;28;19920;-59
2021/05/31 04:01:03;;;;;;;13.25;4.75;;;9.10;99.90;;;;;;5049777;28;20489;-50
2021/05/31 04:03:29;;;;;;;8.13;5.00;;;9.20;99.90;;;;;;5050875;28;20094;-57
2021/05/31 04:11:36;;;;;;;10.80;5.15;;;9.40;99.90;;;;;;5050216;28;20041;-55
2021/05/31 04:14:04;;;;;;;8.75;5.20;;;9.60;99.90;;;;;;5057900;28;20075;-53
2021/05/31 04:16:30;;;;;;;10.30;5.38;;;9.60;99.90;;;;;;5057896;28;20045;-54
2021/05/31 04:18:55;;;;;;;;;;;9.60;99.90;;;;;;5051631;28;20073;-57
2021/05/31 04:21:21;;;;;;;12.38;4.85;;;9.60;99.90;;;;;;5050004;28;20566;-55
2021/05/31 04:23:47;;;;;;;;;;;9.70;99.90;;;;;;5050863;28;20106;-56
2021/05/31 04:26:12;;;;;;;7.82;4.90;;;10.30;99.90;;;;;;5051012;28;19990;-51
2021/05/31 04:28:38;;;;;;;;;;;10.80;99.90;;;;;;5057564;28;20373;-54
2021/05/31 04:31:03;;;;;;;6.13;3.97;;;11.70;99.90;;;;;;5057949;28;19940;-57
2021/05/31 04:33:29;;;;;;;;;;;12.70;99.90;;;;;;5061589;28;20317;-57
2021/05/31 04:35:54;;;;;;;12.48;5.00;;;13.60;98.50;;;;;;5059280;28;20004;-55
2021/05/31 04:38:20;;;;;;;;;;;13.90;97.20;;;;;;5054638;28;20049;-57
2021/05/31 04:40:46;;;;;;;19.08;4.82;;;13.20;97.80;;;;;;5049133;28;20060;-55
2021/05/31 04:43:11;;;;;;;;;;;12.40;99.90;;;;;;5055304;28;20040;-53
2021/05/31 04:45:37;;;;;;;7.07;4.55;;;12.10;99.90;;;;;;5062088;28;19931;-53
2021/05/31 04:48:02;;;;;;;;;;;12.20;99.90;;;;;;5070601;28;20049;-58
2021/05/31 04:50:28;;;;;;;9.00;5.00;;;12.20;99.90;;;;;;5069986;28;19927;-55
2021/05/31 04:52:53;;;;;;;;;;;12.00;99.90;;;;;;5069289;28;20512;-51
2021/05/31 04:55:19;;;;;;;8.57;4.80;;;11.70;99.90;;;;;;5058336;28;19921;-54
2021/05/31 04:57:45;;;;;;;;;;;11.60;99.90;;;;;;5050691;28;20045;-54
2021/05/31 05:00:13;;;;;;;10.75;5.03;;;11.50;99.90;;;;;;5050185;28;19913;-58
2021/05/31 05:02:38;;;;;;;11.30;4.15;;;11.70;99.90;;;;;;5049817;28;20045;-57
2021/05/31 05:05:04;;;;;;;;;;;12.50;99.90;;;;;;5051009;28;20571;-55
2021/05/31 05:07:30;;;;;;;11.23;4.43;;;13.30;98.90;;;;;;5048497;28;19968;-51
2021/05/31 05:09:55;;;;;;;;;;;13.10;99.20;;;;;;5049887;28;20040;-55
2021/05/31 05:12:21;;;;;;;7.07;4.10;;;12.70;99.90;;;;;;5047327;28;19929;-55
2021/05/31 05:14:47;;;;;;;;;;;12.40;99.90;;;;;;5060252;28;20540;-58
2021/05/31 05:17:12;;;;;;;7.80;3.95;;;12.90;99.90;;;;;;5070299;28;19916;-56
2021/05/31 05:19:38;;;;;;;;;;;13.90;98.30;;;;;;5065849;28;20133;-55
2021/05/31 05:22:03;;;;;;;3.42;2.97;;;15.30;96.10;;;;;;5063790;28;19920;-54
2021/05/31 05:24:29;;;;;;;;;;;16.50;94.10;;;;;;5056208;28;20456;-57
2021/05/31 05:26:54;;;;;;;7.45;3.60;;;17.40;90.00;;;;;;5050168;28;19968;-58
2021/05/31 05:29:20;;;;;;;7.47;3.78;;;17.80;90.00;;;;;;5049634;28;20485;-58
2021/05/31 05:31:46;;;;;;;;;;;18.10;86.80;;;;;;5047400;28;20155;-59
2021/05/31 05:34:12;;;;;;;5.15;3.38;;;18.20;86.30;;;;;;5068720;28;19916;-61
2021/05/31 05:45:04;;;;;;;8.10;3.47;;;18.60;87.30;;;;;;5057442;28;20033;-61
2021/05/31 05:49:58;;;;;;;6.75;3.47;;;18.70;86.60;;;;;;5048945;28;20118;-61
2021/05/31 05:52:23;;;;;;;;;;;19.00;85.90;;;;;;5048883;28;20033;-61
2021/05/31 05:54:49;;;;;;;9.43;3.85;;;18.60;87.10;;;;;;5050174;28;20034;-61
2021/05/31 05:57:15;;;;;;;6.63;3.85;;;19.00;86.40;;;;;;5048835;28;20096;-58
2021/05/31 05:59:41;;;;;;;13.35;3.55;;;19.20;86.70;;;;;;5048490;28;20527;-56
2021/05/31 06:02:06;;;;;;;4.90;3.50;;;18.80;86.80;;;;;;5045982;28;20047;-58
2021/05/31 06:04:34;;;;;;;10.93;3.88;;;18.70;88.80;;;;;;5049581;28;20048;-56
2021/05/31 06:07:00;;;;;;;7.68;3.13;;;18.70;86.60;;;;;;5049241;28;20122;-57
2021/05/31 06:09:25;;;;;;;8.18;3.55;;;19.70;81.90;;;;;;5049135;28;20099;-57
2021/05/31 06:11:52;;;;;;;16.58;6.30;;;20.70;76.20;;;;;;5048287;28;20048;-57
2021/05/31 06:14:17;;;;;;;8.68;3.92;;;21.60;74.90;;;;;;5056510;28;20040;-54
2021/05/31 06:16:43;;;;;;;8.65;3.95;;;22.50;74.50;;;;;;5064909;28;20436;-60
2021/05/31 06:19:08;;;;;;;5.78;3.60;;;22.50;68.10;;;;;;5069064;28;20520;-61
2021/05/31 06:21:34;;;;;;;6.32;3.72;;;22.20;69.20;;;;;;5068146;28;20044;-59
2021/05/31 06:23:59;;;;;;;7.30;3.13;;;22.50;66.80;;;;;;5068450;28;20397;-59
2021/05/31 06:26:25;;;;;;;14.65;5.18;;;22.90;68.60;;;;;;5068564;28;20055;-62
2021/05/31 06:28:50;;;;;;;10.07;4.45;;;22.40;68.60;;;;;;5051910;28;20044;-54
2021/05/31 06:31:16;;;;;;;6.78;3.65;;;22.30;69.30;;;;;;5047382;28;20029;-58
2021/05/31 06:33:42;;;;;;;8.90;4.40;;;21.50;70.00;;;;;;5061861;28;20039;-58
2021/05/31 06:36:09;;;;;;;20.85;4.53;;;21.50;71.50;;;;;;5069930;28;20416;-60
2021/05/31 06:38:35;;;;;;;8.75;4.47;;;22.50;67.70;;;;;;5068483;28;20060;-59
2021/05/31 06:41:03;;;;;;;9.82;4.50;;;22.70;64.20;;;;;;5068186;28;20803;-59
2021/05/31 06:43:29;;;;;;;6.45;3.15;;;22.10;64.10;;;;;;5057951;28;20045;-60
2021/05/31 06:45:55;;;;;;;5.40;3.67;;;21.60;64.60;;;;;;5063822;28;20036;-58
2021/05/31 06:48:21;;;;;;;8.23;3.50;;;21.90;65.60;;;;;;5068238;28;20044;-60
2021/05/31 06:50:47;;;;;;;6.50;3.95;;;22.20;61.60;;;;;;5067456;28;20144;-60
2021/05/31 06:53:12;;;;;;;6.47;3.13;;;22.40;59.40;;;;;;5068309;28;20044;-59
2021/05/31 06:55:39;;;;;;;6.45;3.40;;;22.30;58.80;;;;;;5058379;28;20045;-56
2021/05/31 06:58:04;;;;;;;5.50;3.47;;;21.60;62.70;;;;;;5051690;28;20481;-59
2021/05/31 07:00:30;;;;;;;8.20;3.35;;;21.00;64.80;;;;;;5056921;28;20048;-60
2021/05/31 07:02:56;;;;;;;7.00;3.67;;;21.30;64.60;;;;;;5055325;28;20056;-58
2021/05/31 07:05:23;;;;;;;7.25;3.60;;;21.70;60.90;;;;;;5047864;28;20041;-60
2021/05/31 07:07:49;;;;;;;7.38;3.53;;;21.90;61.20;;;;;;5047647;28;20047;-58
2021/05/31 07:10:17;;;;;;;9.68;3.60;;;22.60;60.00;;;;;;5046797;28;20594;-58
2021/05/31 07:12:43;;;;;;;6.55;3.03;;;22.90;58.50;;;;;;5047003;28;20076;-58
2021/05/31 07:15:11;;;;;;;9.07;3.63;;;22.90;57.80;;;;;;5058651;28;20033;-53
2021/05/31 07:17:37;;;;;;;8.65;3.97;;;22.50;57.30;;;;;;5068065;28;20102;-59
2021/05/31 07:20:06;;;;;;;6.57;3.50;;;22.60;58.90;;;;;;5067162;28;20040;-58
2021/05/31 07:22:32;;;;;;;6.35;3.67;;;22.80;56.50;;;;;;5067628;28;20614;-56
2021/05/31 07:24:58;;;;;;;7.03;3.25;;;23.20;57.20;;;;;;5066069;28;20047;-59
2021/05/31 07:27:24;;;;;;;5.80;3.40;;;23.30;56.00;;;;;;5061809;28;20041;-56
2021/05/31 07:29:50;;;;;;;6.75;3.30;;;23.10;56.00;;;;;;5051448;28;20052;-56
2021/05/31 07:32:16;;;;;;;6.63;3.55;;;23.20;56.30;;;;;;5052020;28;20125;-53
2021/05/31 07:34:42;;;;;;;7.55;3.28;;;23.30;53.50;;;;;;5071138;28;20127;-58
2021/05/31 07:37:09;;;;;;;6.30;3.35;;;23.10;52.60;;;;;;5071980;28;20105;-53
2021/05/31 07:39:35;;;;;;;8.63;3.55;;;24.40;52.20;;;;;;5071259;28;20043;-56
2021/05/31 07:42:00;;;;;;;7.93;3.03;;;24.60;50.20;;;;;;5069411;28;20147;-56
2021/05/31 07:44:26;;;;;;;6.22;3.17;;;26.50;47.80;;;;;;5059699;28;20124;-57
2021/05/31 07:46:52;;;;;;;5.72;2.97;;;26.80;43.90;;;;;;5055868;28;20072;-55
2021/05/31 07:49:17;;;;;;;9.10;3.60;;;26.90;44.10;;;;;;5057482;28;20205;-53
2021/05/31 07:51:45;;;;;;;5.70;3.13;;;26.00;44.60;;;;;;5047904;28;20053;-56
2021/05/31 07:54:11;;;;;;;7.78;3.00;;;25.60;46.20;;;;;;5051331;28;20044;-57
2021/05/31 07:56:38;;;;;;;6.90;3.38;;;25.70;45.80;;;;;;5051593;28;20081;-56
2021/05/31 07:59:04;;;;;;;6.07;3.22;;;25.70;47.70;;;;;;5049880;28;20053;-58
2021/05/31 08:01:30;;;;;;;8.18;2.78;;;26.50;45.70;;;;;;5050224;28;20147;-57
2021/05/31 08:03:56;;;;;;;6.40;3.35;;;27.50;43.80;;;;;;5050389;28;20134;-58
2021/05/31 08:06:21;;;;;;;5.88;2.63;;;28.50;40.10;;;;;;5050857;28;20104;-53
2021/05/31 08:08:47;;;;;;;5.60;3.03;;;29.20;39.70;;;;;;5051666;28;20561;-54
2021/05/31 08:11:13;;;;;;;5.72;3.05;;;29.80;39.30;;;;;;5049646;28;20037;-54
2021/05/31 08:13:39;;;;;;;5.88;2.88;;;29.10;34.90;;;;;;5058465;28;20036;-55
2021/05/31 08:16:08;;;;;;;8.43;3.38;;;28.80;37.80;;;;;;5062226;28;20079;-56
2021/05/31 08:18:34;;;;;;;4.50;2.65;;;27.90;37.80;;;;;;5071113;28;20045;-58
2021/05/31 08:21:00;;;;;;;4.97;2.88;;;28.30;38.30;;;;;;5070102;28;20485;-58
2021/05/31 08:23:26;;;;;;;3.22;2.30;;;28.60;41.60;;;;;;5054921;28;20449;-57
2021/05/31 08:25:52;;;;;;;7.20;2.90;;;29.50;39.40;;;;;;5057850;28;20045;-57
2021/05/31 08:28:18;;;;;;;7.10;3.28;;;29.30;37.00;;;;;;5056910;28;20503;-58
2021/05/31 08:30:44;;;;;;;4.88;2.50;;;29.10;37.90;;;;;;5057318;28;20044;-55
2021/05/31 08:33:10;;;;;;;4.80;2.60;;;28.70;35.30;;;;;;5058778;28;20047;-55
2021/05/31 08:35:38;;;;;;;5.05;2.50;;;28.80;34.30;;;;;;5049205;28;20078;-59
2021/05/31 08:38:04;;;;;;;5.93;2.50;;;28.70;33.10;;;;;;5050784;28;20044;-57
2021/05/31 08:40:29;;;;;;;26.98;3.78;;;29.50;36.40;;;;;;5048237;28;20052;-58
2021/05/31 08:42:56;;;;;;;5.57;3.05;;;29.00;35.20;;;;;;5052107;28;20358;-58
2021/05/31 08:45:22;;;;;;;5.22;3.20;;;28.80;36.70;;;;;;5062339;28;20039;-58
2021/05/31 08:47:50;;;;;;;7.60;2.97;;;28.00;36.00;;;;;;5051064;28;20123;-55
2021/05/31 08:50:22;;;;;;;4.40;2.63;;;28.00;35.50;;;;;;5057644;28;20037;-52
2021/05/31 08:52:50;;;;;;;7.82;2.95;;;28.50;36.90;;;;;;5048089;28;20044;-55
2021/05/31 08:55:18;;;;;;;7.20;4.57;;;27.50;34.20;;;;;;5049428;28;20102;-56
2021/05/31 08:57:44;;;;;;;6.50;3.58;;;27.10;35.70;;;;;;5049976;28;20044;-54
2021/05/31 09:00:14;;;;;;;8.00;3.25;;;25.40;37.90;;;;;;5049618;28;20045;-56
2021/05/31 09:02:40;;;;;;;5.88;3.25;;;24.60;43.00;;;;;;5048284;28;20083;-57
2021/05/31 09:05:07;;;;;;;7.40;3.10;;;24.00;42.10;;;;;;5049835;28;20049;-53
2021/05/31 09:07:33;;;;;;;6.13;3.55;;;23.10;46.10;;;;;;5049941;28;20049;-54
2021/05/31 09:10:00;;;;;;;7.18;3.55;;;22.70;48.00;;;;;;5048833;28;20044;-56
2021/05/31 09:12:35;;;;;;;7.95;3.67;;;22.30;51.40;;;;;;5048891;28;20048;-55
2021/05/31 09:15:10;;;;;;;7.17;4.10;;;21.50;52.90;;;;;;5067334;28;20127;-53
2021/05/31 09:17:39;;;;;;;5.82;3.55;;;20.60;53.90;;;;;;5048945;28;20053;-55
2021/05/31 09:20:08;;;;;;;5.95;3.53;;;20.50;54.00;;;;;;5048574;28;20044;-57
2021/05/31 09:23:03;;;;;;;9.38;4.43;;;20.60;55.20;;;;;;5043007;28;20046;-56
2021/05/31 09:25:35;;;;;;;5.70;3.60;;;20.70;55.50;;;;;;5051113;28;20049;-58
2021/05/31 09:28:11;;;;;;;20.95;4.60;;;20.90;55.40;;;;;;5041176;28;20618;-53
2021/05/31 09:30:44;;;;;;;5.22;3.33;;;20.40;54.10;;;;;;5051379;28;20040;-57
2021/05/31 09:33:12;;;;;;;6.18;3.17;;;20.50;53.40;;;;;;5061837;28;20033;-55
2021/05/31 09:35:39;;;;;;;13.43;3.30;;;20.50;54.90;;;;;;5067310;28;20496;-56
2021/05/31 09:38:05;;;;;;;12.35;4.65;;;20.40;55.30;;;;;;5058349;28;20098;-56
2021/05/31 09:40:31;;;;;;;;;;;20.30;55.90;;;;;;5057501;28;20045;-54
2021/05/31 09:43:02;;;;;;;9.25;3.90;;;20.00;55.30;;;;;;5061621;28;20020;-52
2021/05/31 09:45:30;;;;;;;11.68;4.32;;;19.80;55.30;;;;;;5056870;28;20052;-56
2021/05/31 09:48:03;;;;;;;13.18;4.00;;;19.60;57.30;;;;;;5049184;28;20060;-53
2021/05/31 09:50:31;;;;;;;7.38;3.80;;;19.80;56.30;;;;;;5056865;28;20120;-54
2021/05/31 09:53:12;;;;;;;7.97;3.83;;;19.50;57.00;;;;;;5056898;28;20051;-54
2021/05/31 09:55:46;;;;;;;11.00;3.92;;;19.40;57.30;;;;;;5061494;28;21036;-56
2021/05/31 09:58:17;;;;;;;8.73;4.30;;;19.30;59.00;;;;;;5054063;28;20569;-52
2021/05/31 10:00:52;;;;;;;9.13;4.20;;;18.90;59.90;;;;;;5057235;28;20378;-55
2021/05/31 10:10:55;;;;;;;6.70;3.40;;;19.60;61.80;;;;;;5047741;28;20099;-53
2021/05/31 10:13:23;;;;;;;6.43;3.72;;;19.60;57.30;;;;;;5048811;28;20041;-55
2021/05/31 10:15:49;;;;;;;5.70;3.63;;;19.80;56.00;;;;;;5063183;28;20036;-54
2021/05/31 10:18:17;;;;;;;11.35;3.80;;;19.60;54.20;;;;;;5068555;28;20288;-55
2021/05/31 10:20:43;;;;;;;8.10;3.70;;;19.70;55.00;;;;;;5067531;28;20563;-54
2021/05/31 10:23:11;;;;;;;7.80;4.10;;;19.40;57.00;;;;;;5067635;28;20139;-54
2021/05/31 10:25:41;;;;;;;6.10;3.70;;;19.10;60.00;;;;;;5068500;28;20484;-50
2021/05/31 10:28:07;;;;;;;7.60;3.15;;;19.20;58.40;;;;;;5057132;28;20094;-57
2021/05/31 10:31:03;;;;;;;6.30;2.90;;;19.00;52.80;;;;;;5047299;28;20439;-52
2021/05/31 10:33:30;;;;;;;7.65;3.15;;;19.10;55.30;;;;;;5060648;28;20056;-53
2021/05/31 10:36:12;;;;;;;6.10;2.45;;;19.20;54.90;;;;;;5068102;28;20086;-50
2021/05/31 10:38:38;;;;;;;6.97;3.75;;;19.40;54.80;;;;;;5067121;28;20511;-57
2021/05/31 10:41:12;;;;;;;11.10;3.55;;;19.60;54.60;;;;;;5067143;28;20045;-53
2021/05/31 10:43:44;;;;;;;7.47;3.15;;;20.00;55.70;;;;;;5056620;28;20045;-50
2021/05/31 10:46:14;;;;;;;10.05;5.35;;;19.90;53.50;;;;;;5061080;28;20093;-56
2021/05/31 10:48:43;;;;;;;8.32;3.90;;;20.00;56.90;;;;;;5068147;28;20056;-53
2021/05/31 10:51:25;;;;;;;6.97;3.33;;;20.20;56.40;;;;;;5064793;28;20044;-54
2021/05/31 10:53:51;;;;;;;7.95;4.15;;;20.00;53.50;;;;;;5056014;28;20049;-56
2021/05/31 10:56:17;;;;;;;4.32;2.70;;;20.10;54.30;;;;;;5048206;28;20041;-56
2021/05/31 10:58:48;;;;;;;;;;;19.90;53.90;;;;;;5048170;28;20059;-54
2021/05/31 11:01:18;;;;;;;3.97;2.80;;;19.90;55.70;;;;;;5046169;28;19979;-54
2021/05/31 11:04:00;;;;;;;6.70;2.78;;;19.70;53.80;;;;;;5047411;28;20041;-53
2021/05/31 11:06:28;;;;;;;9.02;4.25;;;19.80;53.00;;;;;;5047598;28;20045;-54
2021/05/31 11:09:03;;;;;;;6.90;3.95;;;19.80;56.30;;;;;;5047884;28;20049;-49
2021/05/31 11:11:37;;;;;;;8.35;4.40;;;19.70;54.90;;;;;;5046637;28;20045;-55
2021/05/31 11:14:04;;;;;;;5.85;3.05;;;19.60;56.70;;;;;;5055206;28;20074;-53
2021/05/31 11:16:34;;;;;;;5.30;2.75;;;19.80;56.40;;;;;;5063321;28;20128;-55
2021/05/31 11:19:02;;;;;;;5.25;3.20;;;19.70;54.10;;;;;;5031498;23;20071;-56
2021/05/31 11:21:40;;;;;;;7.63;2.78;;;19.70;54.60;;;;;;5050599;28;20524;-54
2021/05/31 11:24:08;;;;;;;4.72;2.75;;;19.80;54.10;;;;;;5047889;28;20037;-55
2021/05/31 11:26:39;;;;;;;4.43;2.55;;;19.60;52.80;;;;;;5047213;28;20037;-52
2021/05/31 11:29:08;;;;;;;5.15;2.58;;;19.50;53.60;;;;;;5046363;28;20041;-57
2021/05/31 11:31:35;;;;;;;4.18;2.55;;;19.50;52.20;;;;;;5016885;28;20041;-53
2021/05/31 11:34:02;;;;;;;6.57;3.22;;;19.40;51.30;;;;;;5026751;28;20140;-54
2021/05/31 11:36:33;;;;;;;6.35;2.85;;;19.50;50.10;;;;;;5027871;28;20536;-52
2021/05/31 11:39:01;;;;;;;6.30;3.08;;;19.50;52.90;;;;;;5027834;28;20053;-56
2021/05/31 11:41:38;;;;;;;5.05;3.15;;;19.50;54.30;;;;;;5025903;28;20549;-51
2021/05/31 11:44:04;;;;;;;8.90;3.70;;;19.50;53.30;;;;;;5027447;28;20042;-56
2021/05/31 11:46:30;;;;;;;6.57;3.13;;;19.50;53.40;;;;;;5038460;28;20113;-52
2021/05/31 11:48:59;;;;;;;;;;;19.40;53.20;;;;;;5047942;28;20155;-57
2021/05/31 11:51:26;;;;;;;8.77;3.22;;;19.50;54.00;;;;;;5027134;28;20006;-56
2021/05/31 11:53:51;;;;;;;6.78;3.40;;;19.50;54.00;;;;;;5046787;28;20509;-57
2021/05/31 11:56:17;;;;;;;;;;;19.50;55.40;;;;;;5047634;28;20041;-53
2021/05/31 11:58:43;;;;;;;4.55;2.60;;;19.40;51.30;;;;;;5047411;28;19928;-55
2021/05/31 12:01:10;;;;;;;;;;;19.70;52.60;;;;;;5046374;28;20409;-51
2021/05/31 12:03:38;;;;;;;7.40;2.72;;;19.70;53.70;;;;;;5046950;28;19943;-54
2021/05/31 12:06:11;;;;;;;5.28;2.85;;;19.70;52.20;;;;;;5047467;28;20067;-50
2021/05/31 12:08:37;;;;;;;4.05;2.67;;;19.70;54.00;;;;;;5047048;28;20051;-56
2021/05/31 12:11:03;;;;;;;;;;;19.80;54.30;;;;;;5046142;28;20049;-57
2021/05/31 12:13:30;;;;;;;4.60;3.08;;;19.80;53.70;;;;;;5041462;28;19920;-56
2021/05/31 12:15:56;;;;;;;7.18;3.00;;;19.80;52.40;;;;;;5031149;28;20071;-50
2021/05/31 12:18:23;;;;;;;;;;;19.90;51.80;;;;;;5051389;28;20084;-51
2021/05/31 12:20:55;;;;;;;2.90;2.20;;;20.10;55.90;;;;;;5049792;28;19916;-52
2021/05/31 12:23:22;;;;;;;4.10;2.63;;;20.20;51.30;;;;;;5050565;28;20102;-51
2021/05/31 12:25:51;;;;;;;4.50;2.20;;;20.20;51.00;;;;;;5051065;28;20037;-50
2021/05/31 12:28:19;;;;;;;4.30;2.90;;;20.30;52.20;;;;;;5051353;28;20482;-52
2021/05/31 12:30:54;;;;;;;2.30;2.08;;;20.50;54.40;;;;;;5048152;28;20049;-56
2021/05/31 12:33:20;;;;;;;4.97;2.25;;;20.70;52.60;;;;;;5039054;28;20068;-53
2021/05/31 12:35:47;;;;;;;3.60;2.00;;;20.40;49.00;;;;;;5030579;28;20546;-56
2021/05/31 12:38:13;;;;;;;4.10;2.00;;;20.20;48.60;;;;;;5030063;28;20056;-53
2021/05/31 12:40:41;;;;;;;4.75;2.10;;;20.30;49.00;;;;;;5030300;28;20103;-52
2021/05/31 12:43:08;;;;;;;3.70;2.30;;;20.10;48.40;;;;;;5036879;28;20052;-52
2021/05/31 12:45:44;;;;;;;5.90;2.15;;;20.10;49.00;;;;;;5033498;28;20565;-53
2021/05/31 12:48:14;;;;;;;3.08;1.95;;;20.20;49.90;;;;;;5030565;28;20048;-55
2021/05/31 12:50:40;;;;;;;5.78;1.92;;;20.30;48.90;;;;;;5029410;28;20463;-56
2021/05/31 12:53:07;;;;;;;;;;;20.00;48.20;;;;;;5030210;28;20045;-55
2021/05/31 12:55:34;;;;;;;;;;;20.00;48.20;;;;;;5031620;28;20261;-56
2021/05/31 12:58:14;;;;;;;5.03;2.30;;;20.00;49.00;;;;;;5026261;28;19917;-56
2021/05/31 13:00:40;;;;;;;5.10;3.03;;;19.90;49.00;;;;;;5049087;28;20052;-53
2021/05/31 13:03:06;;;;;;;7.13;2.30;;;19.90;49.40;;;;;;5044723;28;20045;-55
2021/05/31 13:05:33;;;;;;;;;;;19.90;50.20;;;;;;5047791;28;20044;-55
2021/05/31 13:08:02;;;;;;;5.25;3.08;;;20.00;48.40;;;;;;5033721;28;20011;-56
2021/05/31 13:10:30;;;;;;;2.53;2.20;;;19.90;49.80;;;;;;5039102;28;21022;-53
2021/05/31 13:13:11;;;;;;;3.65;2.15;;;20.00;51.40;;;;;;5046059;28;20052;-54
2021/05/31 13:15:45;;;;;;;11.15;2.25;;;19.90;50.90;;;;;;5037906;28;20037;-51
2021/05/31 13:18:21;;;;;;;5.50;2.35;;;19.80;52.30;;;;;;5030040;28;20656;-56
2021/05/31 13:20:52;;;;;;;6.15;3.20;;;19.90;51.80;;;;;;5042993;28;20044;-58
2021/05/31 13:23:19;;;;;;;5.28;2.38;;;19.70;51.80;;;;;;5049906;28;20092;-56
2021/05/31 13:25:51;;;;;;;5.90;2.15;;;19.80;51.20;;;;;;5050389;28;20037;-57
2021/05/31 13:28:18;;;;;;;5.80;2.50;;;19.90;51.00;;;;;;5049876;28;20120;-57
2021/05/31 13:30:45;;;;;;;5.28;2.50;;;19.80;50.20;;;;;;5038230;28;20068;-53